Atlantic Clover — 3FVD6 — position and weather

sailwx.info

Track history (hours):
 
Tides and Currents Weather Stations Pressure Air Temp Water Temp Dewpoint Dewpoint Depression Visibility Wind Speed Wind Dir Waves Ship Positions

Atlantic Clover

Last reported at 2015-Apr-15 22:12 UTC. Time now 2015-Apr-18 23:37 UTC.
Position N 26°08' W 078°48'.

Length 180 m; draft 9 m.

Type: Cargo ship. MMSI: 371263000.

Date/timePositionNaut miles runAvg speedWind from/ knotsBaromVisibWave heightAir tempDewpointWater temp
2015-Apr-15 22:12N 26°08' W 078°48'912.3
2015-Apr-15 21:28N 26°11' W 078°58'1611.3
2015-Apr-15 20:04N 26°10' W 079°15'813.5
2015-Apr-15 19:30N 26°04' W 079°21'1314.2
2015-Apr-15 18:33N 25°52' W 079°27'202 6.9
2015-Apr-14 13:24N 25°52' W 083°11'1312.2
2015-Apr-14 12:22N 26°05' W 083°10'1011.9
2015-Apr-14 11:33N 26°14' W 083°08'1612.1
2015-Apr-14 10:16N 26°30' W 083°07'912.2
2015-Apr-14 09:31N 26°39' W 083°06'5910.9
2015-Apr-14 04:06N 27°36' W 082°50'813.4
2015-Apr-14 03:29N 27°37' W 082°40'1112.2
2015-Apr-14 02:33N 27°45' W 082°32'1010.3
2015-Apr-14 01:33N 27°54' W 082°26'1 0.8
2015-Apr-14 00:32N 27°54' W 082°25'0 0.0
2015-Apr-13 23:32N 27°54' W 082°25'0 0.0
2015-Apr-13 22:32N 27°54' W 082°25'0 0.0
2015-Apr-13 21:32N 27°54' W 082°25'0 0.0
2015-Apr-13 20:32N 27°54' W 082°25'0 0.0
2015-Apr-13 19:32N 27°54' W 082°25'0 0.0
2015-Apr-13 18:32N 27°54' W 082°25'0 0.0
2015-Apr-13 17:29N 27°54' W 082°25'0 0.0
2015-Apr-13 16:32N 27°54' W 082°25'0 0.0
2015-Apr-13 15:29N 27°54' W 082°25'0 0.0
2015-Apr-13 14:32N 27°54' W 082°25'0 0.0
2015-Apr-13 13:32N 27°54' W 082°25'0 0.0
2015-Apr-13 12:32N 27°54' W 082°25'0 0.0
2015-Apr-13 11:32N 27°54' W 082°25'0 0.0
2015-Apr-13 10:32N 27°54' W 082°25'0 0.0
2015-Apr-13 09:32N 27°54' W 082°25'0 0.0
2015-Apr-13 08:32N 27°54' W 082°25'0 0.0
2015-Apr-13 07:32N 27°54' W 082°25'0 0.0
2015-Apr-13 06:32N 27°54' W 082°25'0 0.0
2015-Apr-13 05:32N 27°54' W 082°25'0 0.0
2015-Apr-13 04:32N 27°54' W 082°25'0 0.0
2015-Apr-13 03:32N 27°54' W 082°25'0 0.0
2015-Apr-13 02:32N 27°54' W 082°25'0 0.0
2015-Apr-13 01:32N 27°54' W 082°25'0 0.0
2015-Apr-13 00:32N 27°54' W 082°25'0 0.0
2015-Apr-12 23:32N 27°54' W 082°25'0 0.0
2015-Apr-12 22:32N 27°54' W 082°25'0 0.0
2015-Apr-12 21:32N 27°54' W 082°25'0 0.0
2015-Apr-12 20:32N 27°54' W 082°25'0 0.0
2015-Apr-12 19:32N 27°54' W 082°25'0 0.0
2015-Apr-12 18:32N 27°54' W 082°25'0 0.0
2015-Apr-12 17:32N 27°54' W 082°25'0 0.0
2015-Apr-12 16:32N 27°54' W 082°25'0 0.0
2015-Apr-12 15:32N 27°54' W 082°25'0 0.0
2015-Apr-12 14:32N 27°54' W 082°25'0 0.0
2015-Apr-12 13:32N 27°54' W 082°25'0 0.0
2015-Apr-12 12:32N 27°54' W 082°25'0 0.0
2015-Apr-12 11:32N 27°54' W 082°25'0 0.0
2015-Apr-12 10:32N 27°54' W 082°25'0 0.0
2015-Apr-12 09:32N 27°54' W 082°25'0 0.0
2015-Apr-12 08:32N 27°54' W 082°25'0 0.0
2015-Apr-12 07:32N 27°54' W 082°25'0 0.0
2015-Apr-12 06:32N 27°54' W 082°25'0 0.0
2015-Apr-12 05:32N 27°54' W 082°25'0 0.0
2015-Apr-12 04:32N 27°54' W 082°25'0 0.0
2015-Apr-12 03:29N 27°54' W 082°25'0 0.0
2015-Apr-12 02:32N 27°54' W 082°25'0 0.0
2015-Apr-12 01:29N 27°54' W 082°25'0 0.0
2015-Apr-12 00:32N 27°54' W 082°25'0 0.0
2015-Apr-11 23:32N 27°54' W 082°25'0 0.0
2015-Apr-11 22:32N 27°54' W 082°25'0 0.0
2015-Apr-11 21:32N 27°54' W 082°25'0 0.0
2015-Apr-11 20:29N 27°54' W 082°25'0 0.0
2015-Apr-11 19:32N 27°54' W 082°25'0 0.0
2015-Apr-11 18:32N 27°54' W 082°25'0 0.0
2015-Apr-11 17:32N 27°54' W 082°25'0 0.0
2015-Apr-11 16:32N 27°54' W 082°25'0 0.0
2015-Apr-11 15:32N 27°54' W 082°25'1 0.7
2015-Apr-11 14:33N 27°54' W 082°26'7 7.4
2015-Apr-11 13:33N 27°48' W 082°30'1111.4
2015-Apr-11 12:33N 27°38' W 082°37'50 9.5
2015-Apr-11 07:18N 26°54' W 083°03'1613.0
2015-Apr-11 06:06N 26°38' W 083°04'2013.0
2015-Apr-11 04:31N 26°18' W 083°06'1913.1
2015-Apr-11 03:03N 25°59' W 083°08'172 6.6
2015-Apr-10 01:09N 25°29' W 079°60'5 8.6
2015-Apr-10 00:33N 25°35' W 079°59'9 9.1
2015-Apr-09 23:33N 25°44' W 079°59'1010.2
2015-Apr-09 22:33N 25°54' W 079°59'10 9.9
2015-Apr-09 21:33N 26°04' W 079°59'9 9.3
2015-Apr-09 20:34N 26°13' W 079°59'9 9.3
2015-Apr-09 19:33N 26°22' W 079°58'9 9.2
2015-Apr-09 18:33N 26°32' W 079°58'9 8.7
2015-Apr-09 17:33N 26°40' W 079°58'6 6.5
2015-Apr-09 16:33N 26°46' W 080°01'2 1.6
2015-Apr-09 15:31N 26°46' W 080°03'0 0.0
2015-Apr-09 14:31N 26°46' W 080°03'0 0.0
2015-Apr-09 13:31N 26°46' W 080°03'0 0.0
2015-Apr-09 12:28N 26°46' W 080°03'0 0.0
2015-Apr-09 11:31N 26°46' W 080°03'0 0.0
2015-Apr-09 10:31N 26°46' W 080°03'0 0.0
2015-Apr-09 09:31N 26°46' W 080°03'0 0.0
2015-Apr-09 08:25N 26°46' W 080°03'0 0.0
2015-Apr-09 07:28N 26°46' W 080°03'0 0.0
2015-Apr-09 06:31N 26°46' W 080°03'0 0.0
2015-Apr-09 05:31N 26°46' W 080°03'0 0.0
2015-Apr-09 04:31N 26°46' W 080°03'0 0.0
2015-Apr-09 03:28N 26°46' W 080°03'0 0.0
2015-Apr-09 02:31N 26°46' W 080°03'0 0.0
2015-Apr-09 01:31N 26°46' W 080°03'0 0.0
2015-Apr-09 00:28N 26°46' W 080°03'0 0.0
2015-Apr-08 23:31N 26°46' W 080°03'0 0.0
2015-Apr-08 22:28N 26°46' W 080°03'0 0.0
2015-Apr-08 21:31N 26°46' W 080°03'0 0.0
2015-Apr-08 19:31N 26°46' W 080°03'0 0.0
2015-Apr-08 18:16N 26°46' W 080°03'0 0.0
2015-Apr-08 16:28N 26°46' W 080°03'0 0.0
2015-Apr-08 14:04N 26°46' W 080°03'0 0.0
2015-Apr-08 13:31N 26°46' W 080°03'0 0.0
2015-Apr-08 12:28N 26°46' W 080°03'0 0.0
2015-Apr-08 11:28N 26°46' W 080°03'0 0.0
2015-Apr-08 10:31N 26°46' W 080°03'0 0.0
2015-Apr-08 08:31N 26°46' W 080°03'0 0.0
2015-Apr-08 05:13N 26°46' W 080°03'0 0.0
2015-Apr-08 04:19N 26°46' W 080°03'0 0.0
2015-Apr-08 03:22N 26°46' W 080°03'0 0.0
2015-Apr-08 02:31N 26°46' W 080°03'0 0.0
2015-Apr-08 01:31N 26°46' W 080°03'0 0.0
2015-Apr-08 00:31N 26°46' W 080°03'0 0.0
2015-Apr-07 23:31N 26°46' W 080°03'0 0.0
2015-Apr-07 22:28N 26°46' W 080°03'0 0.0
2015-Apr-07 21:28N 26°46' W 080°03'0 0.0
2015-Apr-07 20:28N 26°46' W 080°03'0 0.0
2015-Apr-07 19:28N 26°46' W 080°03'0 0.0
2015-Apr-07 18:31N 26°46' W 080°03'0 0.0
2015-Apr-07 17:31N 26°46' W 080°03'0 0.0
2015-Apr-07 16:22N 26°46' W 080°03'0 0.0
2015-Apr-07 15:31N 26°46' W 080°03'0 0.0
2015-Apr-07 14:25N 26°46' W 080°03'0 0.0
2015-Apr-07 13:28N 26°46' W 080°03'0 0.0
2015-Apr-07 12:31N 26°46' W 080°03'0 0.0
2015-Apr-07 11:31N 26°46' W 080°03'0 0.0
2015-Apr-07 10:31N 26°46' W 080°03'0 0.0
2015-Apr-07 09:31N 26°46' W 080°03'0 0.0
2015-Apr-07 08:31N 26°46' W 080°03'0 0.0
2015-Apr-07 07:28N 26°46' W 080°03'0 0.0
2015-Apr-07 06:25N 26°46' W 080°03'0 0.0
2015-Apr-07 05:22N 26°46' W 080°03'0 0.0
2015-Apr-07 04:31N 26°46' W 080°03'0 0.0
2015-Apr-07 03:31N 26°46' W 080°03'0 0.0
2015-Apr-07 02:31N 26°46' W 080°03'0 0.0
2015-Apr-07 01:31N 26°46' W 080°03'0 0.0
2015-Apr-07 00:31N 26°46' W 080°03'0 0.0
2015-Apr-06 23:31N 26°46' W 080°03'0 0.0
2015-Apr-06 22:31N 26°46' W 080°03'0 0.0
2015-Apr-06 21:28N 26°46' W 080°03'0 0.0
2015-Apr-06 20:28N 26°46' W 080°03'0 0.0
2015-Apr-06 19:25N 26°46' W 080°03'0 0.0
2015-Apr-06 17:31N 26°46' W 080°03'0 0.0
2015-Apr-06 16:28N 26°46' W 080°03'0 0.0
2015-Apr-06 15:31N 26°46' W 080°03'0 0.0
2015-Apr-06 14:31N 26°46' W 080°03'0 0.0
2015-Apr-06 13:19N 26°46' W 080°03'0 0.0
2015-Apr-06 12:28N 26°46' W 080°03'0 0.0
2015-Apr-06 11:25N 26°46' W 080°03'0 0.0
2015-Apr-06 10:28N 26°46' W 080°03'0 0.0
2015-Apr-06 09:31N 26°46' W 080°03'0 0.0
2015-Apr-06 08:31N 26°46' W 080°03'0 0.0
2015-Apr-06 07:31N 26°46' W 080°03'0 0.0
2015-Apr-06 06:31N 26°46' W 080°03'0 0.0
2015-Apr-06 05:31N 26°46' W 080°03'0 0.0
2015-Apr-06 04:31N 26°46' W 080°03'0 0.0
2015-Apr-06 03:31N 26°46' W 080°03'0 0.0
2015-Apr-06 02:31N 26°46' W 080°03'0 0.0
2015-Apr-06 01:31N 26°46' W 080°03'0 0.0
2015-Apr-06 00:31N 26°46' W 080°03'0 0.0
2015-Apr-05 23:31N 26°46' W 080°03'0 0.0
2015-Apr-05 22:31N 26°46' W 080°03'  
Track history (hours):
 
Tides and Currents Weather Stations Pressure Air Temp Water Temp Dewpoint Dewpoint Depression Visibility Wind Speed Wind Dir Waves Ship Positions

Atlantic Clover

Last reported at 2015-Apr-15 22:12 UTC. Time now 2015-Apr-18 23:37 UTC.
Position N 26°08' W 078°48'.

Length 180 m; draft 9 m.

Type: Cargo ship. MMSI: 371263000.

Date/timePositionNaut miles runAvg speedWind from/ knotsBaromVisibWave heightAir tempDewpointWater temp
2015-Apr-15 22:12N 26°08' W 078°48'912.3
2015-Apr-15 21:28N 26°11' W 078°58'1611.3
2015-Apr-15 20:04N 26°10' W 079°15'813.5
2015-Apr-15 19:30N 26°04' W 079°21'1314.2
2015-Apr-15 18:33N 25°52' W 079°27'202 6.9
2015-Apr-14 13:24N 25°52' W 083°11'1312.2
2015-Apr-14 12:22N 26°05' W 083°10'1011.9
2015-Apr-14 11:33N 26°14' W 083°08'1612.1
2015-Apr-14 10:16N 26°30' W 083°07'912.2
2015-Apr-14 09:31N 26°39' W 083°06'5910.9
2015-Apr-14 04:06N 27°36' W 082°50'813.4
2015-Apr-14 03:29N 27°37' W 082°40'1112.2
2015-Apr-14 02:33N 27°45' W 082°32'1010.3
2015-Apr-14 01:33N 27°54' W 082°26'1 0.8
2015-Apr-14 00:32N 27°54' W 082°25'0 0.0
2015-Apr-13 23:32N 27°54' W 082°25'0 0.0
2015-Apr-13 22:32N 27°54' W 082°25'0 0.0
2015-Apr-13 21:32N 27°54' W 082°25'0 0.0
2015-Apr-13 20:32N 27°54' W 082°25'0 0.0
2015-Apr-13 19:32N 27°54' W 082°25'0 0.0
2015-Apr-13 18:32N 27°54' W 082°25'0 0.0
2015-Apr-13 17:29N 27°54' W 082°25'0 0.0
2015-Apr-13 16:32N 27°54' W 082°25'0 0.0
2015-Apr-13 15:29N 27°54' W 082°25'0 0.0
2015-Apr-13 14:32N 27°54' W 082°25'0 0.0
2015-Apr-13 13:32N 27°54' W 082°25'0 0.0
2015-Apr-13 12:32N 27°54' W 082°25'0 0.0
2015-Apr-13 11:32N 27°54' W 082°25'0 0.0
2015-Apr-13 10:32N 27°54' W 082°25'0 0.0
2015-Apr-13 09:32N 27°54' W 082°25'0 0.0
2015-Apr-13 08:32N 27°54' W 082°25'0 0.0
2015-Apr-13 07:32N 27°54' W 082°25'0 0.0
2015-Apr-13 06:32N 27°54' W 082°25'0 0.0
2015-Apr-13 05:32N 27°54' W 082°25'0 0.0
2015-Apr-13 04:32N 27°54' W 082°25'0 0.0
2015-Apr-13 03:32N 27°54' W 082°25'0 0.0
2015-Apr-13 02:32N 27°54' W 082°25'0 0.0
2015-Apr-13 01:32N 27°54' W 082°25'0 0.0
2015-Apr-13 00:32N 27°54' W 082°25'0 0.0
2015-Apr-12 23:32N 27°54' W 082°25'0 0.0
2015-Apr-12 22:32N 27°54' W 082°25'0 0.0
2015-Apr-12 21:32N 27°54' W 082°25'0 0.0
2015-Apr-12 20:32N 27°54' W 082°25'0 0.0
2015-Apr-12 19:32N 27°54' W 082°25'0 0.0
2015-Apr-12 18:32N 27°54' W 082°25'0 0.0
2015-Apr-12 17:32N 27°54' W 082°25'0 0.0
2015-Apr-12 16:32N 27°54' W 082°25'0 0.0
2015-Apr-12 15:32N 27°54' W 082°25'0 0.0
2015-Apr-12 14:32N 27°54' W 082°25'0 0.0
2015-Apr-12 13:32N 27°54' W 082°25'0 0.0
2015-Apr-12 12:32N 27°54' W 082°25'0 0.0
2015-Apr-12 11:32N 27°54' W 082°25'0 0.0
2015-Apr-12 10:32N 27°54' W 082°25'0 0.0
2015-Apr-12 09:32N 27°54' W 082°25'0 0.0
2015-Apr-12 08:32N 27°54' W 082°25'0 0.0
2015-Apr-12 07:32N 27°54' W 082°25'0 0.0
2015-Apr-12 06:32N 27°54' W 082°25'0 0.0
2015-Apr-12 05:32N 27°54' W 082°25'0 0.0
2015-Apr-12 04:32N 27°54' W 082°25'0 0.0
2015-Apr-12 03:29N 27°54' W 082°25'0 0.0
2015-Apr-12 02:32N 27°54' W 082°25'0 0.0
2015-Apr-12 01:29N 27°54' W 082°25'0 0.0
2015-Apr-12 00:32N 27°54' W 082°25'0 0.0
2015-Apr-11 23:32N 27°54' W 082°25'0 0.0
2015-Apr-11 22:32N 27°54' W 082°25'0 0.0
2015-Apr-11 21:32N 27°54' W 082°25'0 0.0
2015-Apr-11 20:29N 27°54' W 082°25'0 0.0
2015-Apr-11 19:32N 27°54' W 082°25'0 0.0
2015-Apr-11 18:32N 27°54' W 082°25'0 0.0
2015-Apr-11 17:32N 27°54' W 082°25'0 0.0
2015-Apr-11 16:32N 27°54' W 082°25'0 0.0
2015-Apr-11 15:32N 27°54' W 082°25'1 0.7
2015-Apr-11 14:33N 27°54' W 082°26'7 7.4
2015-Apr-11 13:33N 27°48' W 082°30'1111.4
2015-Apr-11 12:33N 27°38' W 082°37'50 9.5
2015-Apr-11 07:18N 26°54' W 083°03'1613.0
2015-Apr-11 06:06N 26°38' W 083°04'2013.0
2015-Apr-11 04:31N 26°18' W 083°06'1913.1
2015-Apr-11 03:03N 25°59' W 083°08'172 6.6
2015-Apr-10 01:09N 25°29' W 079°60'5 8.6
2015-Apr-10 00:33N 25°35' W 079°59'9 9.1
2015-Apr-09 23:33N 25°44' W 079°59'1010.2
2015-Apr-09 22:33N 25°54' W 079°59'10 9.9
2015-Apr-09 21:33N 26°04' W 079°59'9 9.3
2015-Apr-09 20:34N 26°13' W 079°59'9 9.3
2015-Apr-09 19:33N 26°22' W 079°58'9 9.2
2015-Apr-09 18:33N 26°32' W 079°58'9 8.7
2015-Apr-09 17:33N 26°40' W 079°58'6 6.5
2015-Apr-09 16:33N 26°46' W 080°01'2 1.6
2015-Apr-09 15:31N 26°46' W 080°03'0 0.0
2015-Apr-09 14:31N 26°46' W 080°03'0 0.0
2015-Apr-09 13:31N 26°46' W 080°03'0 0.0
2015-Apr-09 12:28N 26°46' W 080°03'0 0.0
2015-Apr-09 11:31N 26°46' W 080°03'0 0.0
2015-Apr-09 10:31N 26°46' W 080°03'0 0.0
2015-Apr-09 09:31N 26°46' W 080°03'0 0.0
2015-Apr-09 08:25N 26°46' W 080°03'0 0.0
2015-Apr-09 07:28N 26°46' W 080°03'0 0.0
2015-Apr-09 06:31N 26°46' W 080°03'0 0.0
2015-Apr-09 05:31N 26°46' W 080°03'0 0.0
2015-Apr-09 04:31N 26°46' W 080°03'0 0.0
2015-Apr-09 03:28N 26°46' W 080°03'0 0.0
2015-Apr-09 02:31N 26°46' W 080°03'0 0.0
2015-Apr-09 01:31N 26°46' W 080°03'0 0.0
2015-Apr-09 00:28N 26°46' W 080°03'0 0.0
2015-Apr-08 23:31N 26°46' W 080°03'0 0.0
2015-Apr-08 22:28N 26°46' W 080°03'0 0.0
2015-Apr-08 21:31N 26°46' W 080°03'0 0.0
2015-Apr-08 19:31N 26°46' W 080°03'0 0.0
2015-Apr-08 18:16N 26°46' W 080°03'0 0.0
2015-Apr-08 16:28N 26°46' W 080°03'0 0.0
2015-Apr-08 14:04N 26°46' W 080°03'0 0.0
2015-Apr-08 13:31N 26°46' W 080°03'0 0.0
2015-Apr-08 12:28N 26°46' W 080°03'0 0.0
2015-Apr-08 11:28N 26°46' W 080°03'0 0.0
2015-Apr-08 10:31N 26°46' W 080°03'0 0.0
2015-Apr-08 08:31N 26°46' W 080°03'0 0.0
2015-Apr-08 05:13N 26°46' W 080°03'0 0.0
2015-Apr-08 04:19N 26°46' W 080°03'0 0.0
2015-Apr-08 03:22N 26°46' W 080°03'0 0.0
2015-Apr-08 02:31N 26°46' W 080°03'0 0.0
2015-Apr-08 01:31N 26°46' W 080°03'0 0.0
2015-Apr-08 00:31N 26°46' W 080°03'0 0.0
2015-Apr-07 23:31N 26°46' W 080°03'0 0.0
2015-Apr-07 22:28N 26°46' W 080°03'0 0.0
2015-Apr-07 21:28N 26°46' W 080°03'0 0.0
2015-Apr-07 20:28N 26°46' W 080°03'0 0.0
2015-Apr-07 19:28N 26°46' W 080°03'0 0.0
2015-Apr-07 18:31N 26°46' W 080°03'0 0.0
2015-Apr-07 17:31N 26°46' W 080°03'0 0.0
2015-Apr-07 16:22N 26°46' W 080°03'0 0.0
2015-Apr-07 15:31N 26°46' W 080°03'0 0.0
2015-Apr-07 14:25N 26°46' W 080°03'0 0.0
2015-Apr-07 13:28N 26°46' W 080°03'0 0.0
2015-Apr-07 12:31N 26°46' W 080°03'0 0.0
2015-Apr-07 11:31N 26°46' W 080°03'0 0.0
2015-Apr-07 10:31N 26°46' W 080°03'0 0.0
2015-Apr-07 09:31N 26°46' W 080°03'0 0.0
2015-Apr-07 08:31N 26°46' W 080°03'0 0.0
2015-Apr-07 07:28N 26°46' W 080°03'0 0.0
2015-Apr-07 06:25N 26°46' W 080°03'0 0.0
2015-Apr-07 05:22N 26°46' W 080°03'0 0.0
2015-Apr-07 04:31N 26°46' W 080°03'0 0.0
2015-Apr-07 03:31N 26°46' W 080°03'0 0.0
2015-Apr-07 02:31N 26°46' W 080°03'0 0.0
2015-Apr-07 01:31N 26°46' W 080°03'0 0.0
2015-Apr-07 00:31N 26°46' W 080°03'0 0.0
2015-Apr-06 23:31N 26°46' W 080°03'0 0.0
2015-Apr-06 22:31N 26°46' W 080°03'0 0.0
2015-Apr-06 21:28N 26°46' W 080°03'0 0.0
2015-Apr-06 20:28N 26°46' W 080°03'0 0.0
2015-Apr-06 19:25N 26°46' W 080°03'0 0.0
2015-Apr-06 17:31N 26°46' W 080°03'0 0.0
2015-Apr-06 16:28N 26°46' W 080°03'0 0.0
2015-Apr-06 15:31N 26°46' W 080°03'0 0.0
2015-Apr-06 14:31N 26°46' W 080°03'0 0.0
2015-Apr-06 13:19N 26°46' W 080°03'0 0.0
2015-Apr-06 12:28N 26°46' W 080°03'0 0.0
2015-Apr-06 11:25N 26°46' W 080°03'0 0.0
2015-Apr-06 10:28N 26°46' W 080°03'0 0.0
2015-Apr-06 09:31N 26°46' W 080°03'0 0.0
2015-Apr-06 08:31N 26°46' W 080°03'0 0.0
2015-Apr-06 07:31N 26°46' W 080°03'0 0.0
2015-Apr-06 06:31N 26°46' W 080°03'0 0.0
2015-Apr-06 05:31N 26°46' W 080°03'0 0.0
2015-Apr-06 04:31N 26°46' W 080°03'0 0.0
2015-Apr-06 03:31N 26°46' W 080°03'0 0.0
2015-Apr-06 02:31N 26°46' W 080°03'0 0.0
2015-Apr-06 01:31N 26°46' W 080°03'0 0.0
2015-Apr-06 00:31N 26°46' W 080°03'0 0.0
2015-Apr-05 23:31N 26°46' W 080°03'0 0.0
2015-Apr-05 22:31N 26°46' W 080°03'  

Dump ship's entire track history